Disclaimer

Please do not use the information listed here in-flight or in-navigation, as they are not provided to us by the airports but are provided by volunteers, so they might be outdated.

Search


Regions


Airport information page

No radio frequency information is available.

Airport informations:
Latitude: 63° 11' 38.85" N
Longitude: 014° 30' 07.23" E
Elevation: 1233 feet - 376 meters
Operating hours: Remarks
Operating agency: Civil government, landing fees and diplomatic clearance may be required
Timezone: UTC+1(+2DT) - Last Sunday in March to last Sunday in October
Fuel: Jet A1, without icing nhibitor.

100/130 MIL Spec, low lead, aviation gasoline (BLUE)

Runway information:
12/30 - 8202 x 148 feet< - >2500 x 45 meters
12L/30R - 4034 x 54 feet< - >1230 x 16 meters

Recent METARs:
ESNZ 210250Z AUTO 19002KT 0100 R12/0375N R30/0325N FZFG OVC000/// M03/M04 Q1036
ESNZ 210320Z AUTO 15002KT 0100 R12/0325N R30/0550N FZFG OVC000/// M03/M04 Q1035
ESNZ 210350Z AUTO 11003KT 0100 R12/0450N R30/0450N FZFG OVC000/// M04/M04 Q1035

Airport on the map: